map of CMB home
CMB - Airport
Location
City:  Colombo, Western Province, Sri Lanka (Ceylon)
Name:Bandaranaike International Airport
ICAO:VCBI
IATA:CMB

Details
Type:Airport (Aerodrome, Airfield)
Use:Public/Civil, International (customs port of entry)
Latitude:710'49"N (7.180189)
Longitude:7953'07"E (79.885300)
Elevation:30 ft (9 m)
Variation:2.07W (WMM2015 magnetic declination)
0.07 annual change
Runways:1
Longest:10991 × 148 ft (3350 × 45 m), paved

Time
Time Zone:UTC+5:30
Local Time:

Weather
METAR:VCBI 180610Z 04016KT 9999 FEW018 30/20 Q1013 NOSIG

Related Locations
Nearby:
Farthest:SEII: 11680 mi / 18798 km
Puerto Villamil [General Villamil], Isabela Island, W, EC

Find:

   beyond  
but within

Other Information
Maps:
NOTAMs:
Links:
Sources:

  
flag of Sri Lanka (Ceylon)   

Airport Diagram

Airport diagram for CMB

Airport diagram PDF

Sectional Chart

Flight Planning
at skyvector.com

Satellite Image

Google Maps Satellite view

 

Copyright © 2004-2017 Karl L. Swartz. All rights reserved.
The Great Circle Mapper name and logo are trademarks of the Great Circle Mapper.
All other trademarks mentioned herein belong to their respective owners.
Please see credits for attibutions and further copyright information.

  Follow gcmap on Facebook Follow gcmap on Twitter Follow gcmap on Google+ GCmap on LinkedIn

hCard Microformat

Geo Microformat